createdAt,value
2022-12-23T00:02:02.520Z,100344.31
2022-12-23T00:04:30.150Z,100343.50
2022-12-23T00:06:57.713Z,100346.00
2022-12-23T00:09:25.311Z,100358.09
2022-12-23T00:12:06.737Z,100350.31
2022-12-23T00:14:51.692Z,100355.47
2022-12-23T00:17:22.672Z,100352.94
2022-12-23T00:19:50.893Z,100362.44
2022-12-23T00:22:18.416Z,100361.59
2022-12-23T00:24:46.001Z,100359.91
2022-12-23T00:27:13.639Z,100375.47
2022-12-23T00:29:41.266Z,100373.84
2022-12-23T00:32:08.865Z,100373.75
2022-12-23T00:34:36.553Z,100372.03
2022-12-23T00:37:04.081Z,100372.03
2022-12-23T00:39:54.640Z,100371.13
2022-12-23T00:42:39.903Z,100366.88
2022-12-23T00:45:16.407Z,100380.72
2022-12-23T00:48:06.469Z,100388.47
2022-12-23T00:50:37.114Z,100385.03
2022-12-23T00:53:05.854Z,100394.50
2022-12-23T00:55:33.482Z,100397.94
2022-12-23T00:58:01.058Z,100392.75
2022-12-23T01:00:42.484Z,100393.66
2022-12-23T01:03:34.398Z,100398.00
2022-12-23T01:06:03.447Z,100392.81
2022-12-23T01:08:31.241Z,100392.84
2022-12-23T01:11:04.035Z,100391.13
2022-12-23T01:13:31.660Z,100396.31
2022-12-23T01:16:02.471Z,100397.19
2022-12-23T01:18:30.120Z,100399.78
2022-12-23T01:20:57.702Z,100396.31
2022-12-23T01:23:25.281Z,100404.94
2022-12-23T01:26:05.363Z,100419.66
2022-12-23T01:28:33.976Z,100417.91
2022-12-23T01:31:02.888Z,100414.47
2022-12-23T01:33:31.165Z,100411.91
2022-12-23T01:36:08.693Z,100421.41
2022-12-23T01:38:37.013Z,100424.00
2022-12-23T01:41:04.697Z,100427.53
2022-12-23T01:43:51.118Z,100430.97
2022-12-23T01:46:19.602Z,100425.78
2022-12-23T01:48:52.811Z,100436.16
2022-12-23T01:51:27.263Z,100436.16
2022-12-23T01:54:01.122Z,100449.13
2022-12-23T01:56:40.554Z,100448.31
2022-12-23T01:59:33.872Z,100450.91
2022-12-23T02:02:19.764Z,100462.13
2022-12-23T02:04:48.309Z,100463.88
2022-12-23T02:07:33.707Z,100463.03
2022-12-23T02:10:01.444Z,100469.09
2022-12-23T02:12:49.700Z,100472.56
2022-12-23T02:15:53.210Z,100472.53
2022-12-23T02:19:02.309Z,100475.19
2022-12-23T02:21:47.824Z,100485.56
2022-12-23T02:24:37.382Z,100489.91
2022-12-23T02:27:28.100Z,100485.56
2022-12-23T02:30:24.152Z,100498.53
2022-12-23T02:32:54.593Z,100503.72
2022-12-23T02:35:37.019Z,100496.75
2022-12-23T02:38:11.985Z,100495.06
2022-12-23T02:40:42.229Z,100501.13
2022-12-23T02:43:36.609Z,100508.91
2022-12-23T02:46:31.026Z,100514.13
2022-12-23T02:49:08.411Z,100511.53
2022-12-23T02:51:41.571Z,100526.25
2022-12-23T02:54:13.963Z,100536.63
2022-12-23T02:56:44.310Z,100534.03
2022-12-23T02:59:16.723Z,100524.53
2022-12-23T03:01:46.002Z,100538.34
2022-12-23T03:04:13.630Z,100537.47
2022-12-23T03:06:44.188Z,100534.03
2022-12-23T03:09:33.953Z,100529.72
2022-12-23T03:12:22.245Z,100524.53
2022-12-23T03:15:08.173Z,100537.50
2022-12-23T03:18:03.335Z,100524.53
2022-12-23T03:20:38.554Z,100512.53
2022-12-23T03:23:24.236Z,100504.72
2022-12-23T03:26:06.891Z,100516.81
2022-12-23T03:28:53.114Z,100510.75
2022-12-23T03:31:26.259Z,100514.25
2022-12-23T03:33:59.181Z,100521.19
2022-12-23T03:36:31.179Z,100524.59
2022-12-23T03:38:59.376Z,100521.19
2022-12-23T03:41:40.047Z,100525.50
2022-12-23T03:44:12.308Z,100529.81
2022-12-23T03:46:45.067Z,100525.50
2022-12-23T03:49:28.378Z,100523.75
2022-12-23T03:52:05.007Z,100532.41
2022-12-23T03:54:39.069Z,100544.53
2022-12-23T03:57:09.231Z,100542.78
2022-12-23T03:59:42.201Z,100535.88
2022-12-23T04:02:33.134Z,100550.56
2022-12-23T04:05:08.818Z,100552.28
2022-12-23T04:07:41.320Z,100552.28
2022-12-23T04:10:10.722Z,100560.94
2022-12-23T04:12:39.410Z,100565.25
2022-12-23T04:15:12.572Z,100560.94
2022-12-23T04:17:40.713Z,100577.38
2022-12-23T04:20:08.757Z,100579.97
2022-12-23T04:22:36.279Z,100580.84
2022-12-23T04:25:03.914Z,100574.78
2022-12-23T04:27:31.453Z,100576.53
2022-12-23T04:29:58.915Z,100576.53
2022-12-23T04:32:26.726Z,100573.94
2022-12-23T04:34:54.181Z,100576.53
2022-12-23T04:37:21.650Z,100569.59
2022-12-23T04:39:49.155Z,100568.75
2022-12-23T04:42:16.687Z,100571.34
2022-12-23T04:44:44.242Z,100572.22
2022-12-23T04:47:11.757Z,100572.22
2022-12-23T04:49:39.266Z,100565.28
2022-12-23T04:52:06.807Z,100560.97
2022-12-23T04:54:36.442Z,100548.88
2022-12-23T04:57:06.847Z,100557.53
2022-12-23T04:59:34.950Z,100565.31
2022-12-23T05:02:02.695Z,100554.03
2022-12-23T05:04:30.595Z,100555.75
2022-12-23T05:06:58.137Z,100552.31
2022-12-23T05:09:25.811Z,100566.16
2022-12-23T05:11:53.368Z,100574.78
2022-12-23T05:14:20.921Z,100575.66
2022-12-23T05:16:48.592Z,100563.56
2022-12-23T05:19:16.322Z,100571.34
2022-12-23T05:21:43.842Z,100583.44
2022-12-23T05:24:11.495Z,100579.09
2022-12-23T05:26:39.066Z,100587.75
2022-12-23T05:29:06.701Z,100590.34
2022-12-23T05:31:34.456Z,100592.06
2022-12-23T05:34:06.398Z,100583.44
2022-12-23T05:36:34.314Z,100597.25
2022-12-23T05:39:01.853Z,100600.72
2022-12-23T05:41:29.445Z,100604.16
2022-12-23T05:43:56.964Z,100602.44
2022-12-23T05:46:26.886Z,100599.84
2022-12-23T05:48:54.966Z,100612.81
2022-12-23T05:51:22.561Z,100598.97
2022-12-23T05:53:50.093Z,100600.72
2022-12-23T05:56:17.633Z,100589.47
2022-12-23T05:58:45.169Z,100590.34
2022-12-23T06:01:12.694Z,100589.47
2022-12-23T06:03:40.335Z,100581.72
2022-12-23T06:06:08.367Z,100586.91
2022-12-23T06:08:36.216Z,100584.31
2022-12-23T06:11:06.076Z,100592.94
2022-12-23T06:13:33.649Z,100585.16
2022-12-23T06:16:01.179Z,100577.41
2022-12-23T06:18:28.676Z,100573.94
2022-12-23T06:20:56.246Z,100567.88
2022-12-23T06:23:23.770Z,100567.88
2022-12-23T06:25:51.243Z,100573.94
2022-12-23T06:28:18.755Z,100573.94
2022-12-23T06:30:46.273Z,100573.06
2022-12-23T06:33:13.773Z,100569.59
2022-12-23T06:35:41.280Z,100585.13
2022-12-23T06:38:12.074Z,100579.97
2022-12-23T06:40:40.249Z,100588.59
2022-12-23T06:43:07.870Z,100598.09
2022-12-23T06:45:35.936Z,100592.03
2022-12-23T06:48:03.492Z,100596.41
2022-12-23T06:50:30.990Z,100596.41
2022-12-23T06:52:58.544Z,100597.25
2022-12-23T06:55:26.090Z,100597.25
2022-12-23T06:57:53.640Z,100592.06
2022-12-23T07:00:21.659Z,100588.59
2022-12-23T07:02:49.251Z,100602.44
2022-12-23T07:05:17.380Z,100600.69
2022-12-23T07:07:44.970Z,100600.69
2022-12-23T07:10:12.760Z,100614.53
2022-12-23T07:12:42.631Z,100614.53
2022-12-23T07:15:13.586Z,100616.25
2022-12-23T07:17:41.085Z,100620.59
2022-12-23T07:20:09.874Z,100621.44
2022-12-23T07:22:37.429Z,100627.50
2022-12-23T07:25:05.203Z,100618.00
2022-12-23T07:27:32.749Z,100633.53
2022-12-23T07:30:00.246Z,100624.03
2022-12-23T07:32:27.748Z,100626.63
2022-12-23T07:34:55.335Z,100624.03
2022-12-23T07:37:22.970Z,100622.34
2022-12-23T07:39:50.496Z,100612.78
2022-12-23T07:42:44.168Z,100614.56
2022-12-23T07:45:06.292Z,100609.34
2022-12-23T07:47:33.759Z,100598.94
2022-12-23T07:50:01.347Z,100602.41
2022-12-23T07:52:30.071Z,100579.94
2022-12-23T07:54:57.575Z,100590.34
2022-12-23T07:57:25.361Z,100598.94
2022-12-23T07:59:52.838Z,100601.53
2022-12-23T08:02:22.127Z,100594.63
2022-12-23T08:04:49.943Z,100588.56
2022-12-23T08:07:17.485Z,100586.84
2022-12-23T08:09:45.011Z,100590.34
2022-12-23T08:12:12.608Z,100588.59
2022-12-23T08:14:40.118Z,100586.88
2022-12-23T08:17:07.860Z,100586.84
2022-12-23T08:19:35.448Z,100583.38
2022-12-23T08:22:02.984Z,100579.09
2022-12-23T08:24:30.513Z,100575.63
2022-12-23T08:26:58.298Z,100578.22
2022-12-23T08:29:28.880Z,100573.06
2022-12-23T08:31:58.787Z,100560.94
2022-12-23T08:34:26.397Z,100554.03
2022-12-23T08:36:53.874Z,100562.66
2022-12-23T08:39:22.838Z,100567.00
2022-12-23T08:41:50.499Z,100571.31
2022-12-23T08:44:18.098Z,100555.75
2022-12-23T08:46:46.095Z,100561.78
2022-12-23T08:49:13.860Z,100547.09
2022-12-23T08:51:41.428Z,100554.03
2022-12-23T08:54:10.239Z,100548.81
2022-12-23T08:56:42.677Z,100545.34
2022-12-23T08:59:19.296Z,100546.22
2022-12-23T09:01:48.699Z,100549.66
2022-12-23T09:04:16.807Z,100541.88
2022-12-23T09:06:45.422Z,100534.09
2022-12-23T09:09:15.534Z,100534.16
2022-12-23T09:11:43.870Z,100524.63
2022-12-23T09:14:12.715Z,100536.69
2022-12-23T09:16:40.378Z,100529.81
2022-12-23T09:19:08.703Z,100523.75
2022-12-23T09:21:36.275Z,100523.78
2022-12-23T09:24:03.824Z,100518.59
2022-12-23T09:26:32.431Z,100528.06
2022-12-23T09:29:00.424Z,100529.78
2022-12-23T09:31:34.402Z,100525.44
2022-12-23T09:34:04.422Z,100524.59
2022-12-23T09:36:32.104Z,100521.13
2022-12-23T09:39:00.241Z,100518.53
2022-12-23T09:41:47.446Z,100513.34
2022-12-23T09:44:36.244Z,100511.63
2022-12-23T09:47:07.123Z,100509.03
2022-12-23T09:49:35.439Z,100493.47
2022-12-23T09:52:06.771Z,100483.09
2022-12-23T09:54:45.943Z,100472.72
2022-12-23T09:57:22.421Z,100471.84
2022-12-23T10:00:15.599Z,100462.34
2022-12-23T10:03:01.694Z,100455.41
2022-12-23T10:05:47.991Z,100460.56
2022-12-23T10:08:45.881Z,100448.47
2022-12-23T10:11:21.734Z,100441.53
2022-12-23T10:14:03.856Z,100448.41
2022-12-23T10:16:35.494Z,100438.03
2022-12-23T10:19:09.904Z,100436.34
2022-12-23T10:22:01.054Z,100433.69
2022-12-23T10:24:37.724Z,100425.91
2022-12-23T10:27:38.285Z,100431.94
2022-12-23T10:30:34.255Z,100431.94
2022-12-23T10:33:10.244Z,100429.28
2022-12-23T10:35:53.114Z,100431.94
2022-12-23T10:38:42.019Z,100431.06
2022-12-23T10:41:24.582Z,100418.06
2022-12-23T10:44:03.969Z,100415.41
2022-12-23T10:47:05.580Z,100416.28
2022-12-23T10:49:51.810Z,100418.91
2022-12-23T10:52:22.757Z,100411.13
2022-12-23T10:54:50.431Z,100416.28
2022-12-23T10:57:20.332Z,100413.69
2022-12-23T10:59:48.169Z,100410.25
2022-12-23T11:02:15.837Z,100391.16
2022-12-23T11:04:49.148Z,100391.16
2022-12-23T11:07:45.750Z,100390.25
2022-12-23T11:10:20.543Z,100389.44
2022-12-23T11:12:51.756Z,100391.19
2022-12-23T11:15:28.252Z,100393.75
2022-12-23T11:18:06.684Z,100395.50
2022-12-23T11:20:36.926Z,100380.81
2022-12-23T11:23:06.744Z,100382.56
2022-12-23T11:25:37.398Z,100366.16
2022-12-23T11:28:23.214Z,100364.41
2022-12-23T11:31:14.650Z,100357.47
2022-12-23T11:33:53.086Z,100347.94
2022-12-23T11:36:25.129Z,100334.09
2022-12-23T11:38:55.439Z,100324.66
2022-12-23T11:41:29.239Z,100308.28
2022-12-23T11:44:01.768Z,100299.63
2022-12-23T11:46:33.064Z,100309.09
2022-12-23T11:49:24.996Z,100287.47
2022-12-23T11:52:05.915Z,100287.47
2022-12-23T11:54:35.077Z,100285.75
2022-12-23T11:57:09.964Z,100284.91
2022-12-23T11:59:44.401Z,100274.56
2022-12-23T12:02:18.469Z,100283.16
2022-12-23T12:04:58.074Z,100267.59
2022-12-23T12:07:27.077Z,100266.75
2022-12-23T12:09:58.836Z,100270.19
2022-12-23T12:12:28.711Z,100266.75
2022-12-23T12:14:59.024Z,100266.75
2022-12-23T12:17:35.987Z,100260.72
2022-12-23T12:20:36.774Z,100244.31
2022-12-23T12:23:16.127Z,100243.44
2022-12-23T12:25:50.538Z,100227.00
2022-12-23T12:28:27.101Z,100217.50
2022-12-23T12:31:04.739Z,100226.19
2022-12-23T12:33:39.509Z,100210.53
2022-12-23T12:36:12.845Z,100188.94
2022-12-23T12:38:41.420Z,100185.47
2022-12-23T12:41:15.083Z,100177.69
2022-12-23T12:43:51.989Z,100182.88
2022-12-23T12:46:19.544Z,100173.38
2022-12-23T12:49:05.388Z,100166.41
2022-12-23T12:51:41.956Z,100166.44
2022-12-23T12:54:24.521Z,100156.97
2022-12-23T12:56:56.235Z,100143.97
2022-12-23T12:59:28.425Z,100143.97
2022-12-23T13:02:08.439Z,100131.84
2022-12-23T13:05:00.642Z,100134.47
2022-12-23T13:08:05.766Z,100137.09
2022-12-23T13:10:33.353Z,100141.38
2022-12-23T13:13:06.983Z,100135.41
2022-12-23T13:15:41.785Z,100139.75
2022-12-23T13:18:43.065Z,100134.59
2022-12-23T13:21:41.954Z,100135.47
2022-12-23T13:24:18.308Z,100130.25
2022-12-23T13:26:48.623Z,100126.88
2022-12-23T13:29:40.272Z,100126.81
2022-12-23T13:32:20.881Z,100131.09
2022-12-23T13:35:02.380Z,100135.44
2022-12-23T13:37:47.408Z,100118.09
2022-12-23T13:40:20.997Z,100101.72
2022-12-23T13:42:55.281Z,100081.09
2022-12-23T13:45:29.014Z,100081.09
2022-12-23T13:48:12.364Z,100072.50
2022-12-23T13:50:50.210Z,100072.44
2022-12-23T13:53:27.706Z,100061.25
2022-12-23T13:56:20.619Z,100031.00
2022-12-23T13:58:50.839Z,100029.28
2022-12-23T14:01:18.591Z,100031.91
2022-12-23T14:03:49.604Z,100031.84
2022-12-23T14:06:37.671Z,100033.41
2022-12-23T14:09:05.264Z,100038.44
2022-12-23T14:11:34.466Z,100035.72
2022-12-23T14:14:05.752Z,100041.03
2022-12-23T14:16:51.983Z,100040.13
2022-12-23T14:19:37.841Z,100032.31
2022-12-23T14:22:14.456Z,100035.75
2022-12-23T14:24:58.980Z,100044.44
2022-12-23T14:27:54.468Z,100040.28
2022-12-23T14:30:34.083Z,100038.47
2022-12-23T14:33:06.155Z,100039.31
2022-12-23T14:35:40.302Z,100041.97
2022-12-23T14:38:15.915Z,100038.53
2022-12-23T14:40:43.508Z,100032.56
2022-12-23T14:43:23.141Z,100025.69
2022-12-23T14:45:52.715Z,100025.47
2022-12-23T14:48:35.131Z,100017.69
2022-12-23T14:51:11.534Z,100016.00
2022-12-23T14:53:54.097Z,100017.75
2022-12-23T14:56:39.746Z,100013.50
2022-12-23T14:59:51.312Z,100022.84
2022-12-23T15:02:30.167Z,100027.97
2022-12-23T15:05:00.394Z,100003.09
2022-12-23T15:07:35.001Z,100010.13
2022-12-23T15:10:16.865Z,100021.22
2022-12-23T15:12:49.160Z,100015.94
2022-12-23T15:15:18.648Z,100011.66
2022-12-23T15:17:46.637Z,100010.84
2022-12-23T15:20:16.247Z,100023.91
2022-12-23T15:22:46.491Z,100021.34
2022-12-23T15:25:48.524Z,100017.84
2022-12-23T15:28:25.830Z,100006.59
2022-12-23T15:30:56.745Z,100019.66
2022-12-23T15:34:01.614Z,100029.13
2022-12-23T15:36:30.646Z,100030.81
2022-12-23T15:39:00.661Z,100025.66
2022-12-23T15:41:28.912Z,100015.44
2022-12-23T15:44:01.820Z,100008.56
2022-12-23T15:46:30.840Z,100013.59
2022-12-23T15:48:58.854Z,100012.78
2022-12-23T15:51:57.683Z,100005.91
2022-12-23T15:54:36.752Z,100021.41
2022-12-23T15:57:05.679Z,100034.34
2022-12-23T15:59:37.947Z,100036.06
2022-12-23T16:05:08.982Z,100036.84
2022-12-23T16:07:39.768Z,100040.34
2022-12-23T16:10:17.648Z,100033.44
2022-12-23T16:12:45.874Z,100030.81
2022-12-23T16:15:39.897Z,100029.94
2022-12-23T16:18:13.824Z,100019.53
2022-12-23T16:20:45.492Z,100026.31
2022-12-23T16:23:14.494Z,100026.31
2022-12-23T16:25:50.379Z,100037.53
2022-12-23T16:28:23.966Z,100041.84
2022-12-23T16:30:56.972Z,100047.13
2022-12-23T16:33:27.116Z,100051.50
2022-12-23T16:35:55.720Z,100045.47
2022-12-23T16:38:25.565Z,100053.16
2022-12-23T16:40:54.913Z,100052.25
2022-12-23T16:43:24.413Z,100044.47
2022-12-23T16:45:55.919Z,100048.81
2022-12-23T16:48:43.144Z,100047.13
2022-12-23T16:51:16.965Z,100049.66
2022-12-23T16:53:44.483Z,100050.56
2022-12-23T16:56:16.579Z,100050.59
2022-12-23T16:58:45.004Z,100052.31
2022-12-23T17:01:18.535Z,100055.78
2022-12-23T17:03:46.107Z,100051.47
2022-12-23T17:06:17.908Z,100056.59
2022-12-23T17:08:45.643Z,100059.25
2022-12-23T17:11:56.301Z,100059.22
2022-12-23T17:14:26.040Z,100068.69
2022-12-23T17:16:54.023Z,100071.25
2022-12-23T17:19:27.626Z,100066.88
2022-12-23T17:22:01.692Z,100072.84
2022-12-23T17:24:29.241Z,100071.91
2022-12-23T17:26:57.283Z,100065.91
2022-12-23T17:29:25.167Z,100066.72
2022-12-23T17:31:53.346Z,100069.25
2022-12-23T17:34:23.246Z,100048.47
2022-12-23T17:36:51.493Z,100065.72
2022-12-23T17:39:20.458Z,100071.72
2022-12-23T17:41:48.361Z,100067.38
2022-12-23T17:44:17.911Z,100062.97
2022-12-23T17:46:48.466Z,100066.34
2022-12-23T17:49:16.062Z,100058.56
2022-12-23T17:51:44.162Z,100069.72
2022-12-23T17:54:22.681Z,100074.03
2022-12-23T17:56:50.875Z,100080.00
2022-12-23T17:59:18.430Z,100077.25
2022-12-23T18:01:46.142Z,100082.41
2022-12-23T18:04:13.785Z,100081.41
2022-12-23T18:06:41.332Z,100083.91
2022-12-23T18:09:08.899Z,100087.38
2022-12-23T18:11:47.642Z,100087.34
2022-12-23T18:14:23.746Z,100097.66
2022-12-23T18:16:51.339Z,100101.94
2022-12-23T18:19:21.784Z,100102.94
2022-12-23T18:21:50.491Z,100099.59
2022-12-23T18:24:18.820Z,100106.50
2022-12-23T18:26:47.460Z,100112.63
2022-12-23T18:29:15.068Z,100100.47
2022-12-23T18:31:51.957Z,100104.84
2022-12-23T18:34:21.044Z,100122.16
2022-12-23T18:36:51.435Z,100123.88
2022-12-23T18:39:19.267Z,100118.75
2022-12-23T18:41:46.791Z,100119.59
2022-12-23T18:44:21.126Z,100136.03
2022-12-23T18:46:50.317Z,100139.47
2022-12-23T18:49:18.146Z,100134.34
2022-12-23T18:51:46.021Z,100138.66
2022-12-23T18:54:15.864Z,100147.34
2022-12-23T18:56:44.351Z,100155.97
2022-12-23T18:59:24.201Z,100162.00
2022-12-23T19:01:57.188Z,100145.47
2022-12-23T19:04:24.840Z,100142.88
2022-12-23T19:06:52.683Z,100153.28
2022-12-23T19:09:23.885Z,100145.50
2022-12-23T19:11:53.882Z,100146.41
2022-12-23T19:14:21.853Z,100147.31
2022-12-23T19:16:52.088Z,100144.75
2022-12-23T19:19:20.748Z,100153.34
2022-12-23T19:21:48.277Z,100150.78
2022-12-23T19:24:15.739Z,100160.38
2022-12-23T19:26:43.247Z,100150.75
2022-12-23T19:29:10.887Z,100159.44
2022-12-23T19:31:38.437Z,100175.91
2022-12-23T19:34:09.725Z,100170.63
2022-12-23T19:36:42.145Z,100175.84
2022-12-23T19:39:15.957Z,100177.56
2022-12-23T19:41:43.842Z,100184.47
2022-12-23T19:44:11.431Z,100181.03
2022-12-23T19:46:38.924Z,100191.41
2022-12-23T19:49:06.585Z,100193.16
2022-12-23T19:51:34.092Z,100189.81
2022-12-23T19:54:01.597Z,100197.59
2022-12-23T19:56:30.441Z,100201.91
2022-12-23T19:58:57.963Z,100201.88
2022-12-23T20:01:27.142Z,100214.78
2022-12-23T20:03:56.576Z,100218.25
2022-12-23T20:06:26.932Z,100219.13
2022-12-23T20:09:00.384Z,100219.97
2022-12-23T20:11:30.762Z,100208.66
2022-12-23T20:13:58.673Z,100198.44
2022-12-23T20:16:26.799Z,100222.53
2022-12-23T20:18:54.413Z,100225.97
2022-12-23T20:21:22.569Z,100219.88
2022-12-23T20:23:50.634Z,100226.78
2022-12-23T20:26:20.239Z,100225.81
2022-12-23T20:28:48.014Z,100245.63
2022-12-23T20:31:18.840Z,100253.47
2022-12-23T20:33:48.059Z,100250.91
2022-12-23T20:36:17.583Z,100262.13
2022-12-23T20:38:46.672Z,100266.50
2022-12-23T20:41:16.838Z,100263.06
2022-12-23T20:43:56.965Z,100272.50
2022-12-23T20:46:32.102Z,100269.09
2022-12-23T20:48:59.603Z,100293.28
2022-12-23T20:51:27.169Z,100288.88
2022-12-23T20:53:59.706Z,100266.47
2022-12-23T20:56:29.216Z,100282.84
2022-12-23T20:58:59.404Z,100298.47
2022-12-23T21:01:36.080Z,100295.00
2022-12-23T21:04:07.812Z,100290.69
2022-12-23T21:06:36.283Z,100303.66
2022-12-23T21:09:05.855Z,100303.66
2022-12-23T21:11:36.200Z,100293.31
2022-12-23T21:14:07.178Z,100317.66
2022-12-23T21:16:37.616Z,100300.31
2022-12-23T21:19:07.149Z,100317.72
2022-12-23T21:21:34.820Z,100307.31
2022-12-23T21:24:07.162Z,100316.06
2022-12-23T21:26:35.315Z,100324.59
2022-12-23T21:29:04.856Z,100327.19
2022-12-23T21:31:34.031Z,100328.03
2022-12-23T21:34:01.834Z,100331.50
2022-12-23T21:36:32.350Z,100340.06
2022-12-23T21:39:01.104Z,100346.16
2022-12-23T21:41:31.482Z,100340.97
2022-12-23T21:44:00.928Z,100362.63
2022-12-23T21:46:29.700Z,100351.38
2022-12-23T21:48:59.895Z,100366.97
2022-12-23T21:51:36.948Z,100366.94
2022-12-23T21:54:06.924Z,100379.03
2022-12-23T21:56:34.512Z,100379.00
2022-12-23T21:59:04.896Z,100378.31
2022-12-23T22:01:33.410Z,100383.66
2022-12-23T22:04:00.998Z,100381.94
2022-12-23T22:06:35.859Z,100381.13
2022-12-23T22:09:03.455Z,100384.69
2022-12-23T22:11:33.168Z,100401.13
2022-12-23T22:14:01.966Z,100397.69
2022-12-23T22:16:31.354Z,100410.69
2022-12-23T22:19:00.347Z,100404.69
2022-12-23T22:21:30.117Z,100418.53
2022-12-23T22:23:59.152Z,100426.38
2022-12-23T22:26:30.589Z,100428.13
2022-12-23T22:29:00.407Z,100432.41
2022-12-23T22:31:47.323Z,100442.72
2022-12-23T22:34:20.716Z,100423.72
2022-12-23T22:36:49.562Z,100446.25
2022-12-23T22:39:21.405Z,100451.50
2022-12-23T22:41:50.684Z,100430.75
2022-12-23T22:44:18.680Z,100441.03
2022-12-23T22:46:46.577Z,100450.53
2022-12-23T22:49:15.616Z,100458.31
2022-12-23T22:51:44.044Z,100454.81
2022-12-23T22:54:11.874Z,100458.22
2022-12-23T22:56:39.460Z,100459.97
2022-12-23T22:59:07.107Z,100464.25
2022-12-23T23:01:36.919Z,100466.88
2022-12-23T23:04:05.293Z,100465.19
2022-12-23T23:06:37.534Z,100461.72
2022-12-23T23:09:06.205Z,100470.31
2022-12-23T23:11:33.951Z,100466.88
2022-12-23T23:14:01.597Z,100458.19
2022-12-23T23:16:30.139Z,100475.50
2022-12-23T23:18:58.666Z,100489.34
2022-12-23T23:21:26.906Z,100492.78
2022-12-23T23:23:54.484Z,100481.50
2022-12-23T23:26:26.746Z,100487.56
2022-12-23T23:28:55.555Z,100499.66
2022-12-23T23:34:10.929Z,100497.84
2022-12-23T23:36:38.622Z,100506.53
2022-12-23T23:39:06.171Z,100500.47
2022-12-23T23:41:34.296Z,100501.34
2022-12-23T23:44:01.912Z,100510.00
2022-12-23T23:46:30.601Z,100524.72
2022-12-23T23:48:58.723Z,100535.09
2022-12-23T23:51:26.787Z,100534.25
2022-12-23T23:53:54.393Z,100511.75
2022-12-23T23:56:25.850Z,100539.44
2022-12-23T23:58:54.289Z,100534.28
